createdAt,value
2018-05-08T00:00:00.545Z,98051.48
2018-05-08T00:02:28.828Z,98051.66
2018-05-08T00:04:57.089Z,98052.52
2018-05-08T00:07:26.220Z,98049.85
2018-05-08T00:09:54.489Z,98042.03
2018-05-08T00:12:22.737Z,98041.17
2018-05-08T00:14:51.832Z,98036.55
2018-05-08T00:17:20.957Z,98039.46
2018-05-08T00:19:49.220Z,98038.70
2018-05-08T00:22:17.497Z,98034.83
2018-05-08T00:24:45.744Z,98023.00
2018-05-08T00:27:14.753Z,98019.71
2018-05-08T00:29:43.056Z,98021.88
2018-05-08T00:32:11.312Z,98021.14
2018-05-08T00:34:39.592Z,98020.20
2018-05-08T00:37:07.862Z,98018.60
2018-05-08T00:39:36.117Z,98011.57
2018-05-08T00:42:05.143Z,98013.98
2018-05-08T00:44:33.431Z,98010.00
2018-05-08T00:47:01.679Z,98011.37
2018-05-08T00:49:30.697Z,98008.89
2018-05-08T00:51:58.965Z,98000.98
2018-05-08T00:54:45.024Z,97997.75
2018-05-08T00:57:13.291Z,97995.58
2018-05-08T00:59:41.561Z,97995.73
2018-05-08T01:02:09.816Z,97992.38
2018-05-08T01:04:38.080Z,97996.37
2018-05-08T01:07:06.334Z,97986.95
2018-05-08T01:09:34.589Z,97990.75
2018-05-08T01:12:03.613Z,97989.39
2018-05-08T01:14:31.864Z,97980.10
2018-05-08T01:17:00.907Z,97984.06
2018-05-08T01:19:29.166Z,97988.60
2018-05-08T01:21:57.421Z,97987.22
2018-05-08T01:24:25.666Z,97987.84
2018-05-08T01:26:53.959Z,97988.37
2018-05-08T01:29:22.964Z,97986.52
2018-05-08T01:31:51.226Z,97990.98
2018-05-08T01:34:20.261Z,97988.62
2018-05-08T01:36:48.597Z,97993.75
2018-05-08T01:39:17.626Z,97991.13
2018-05-08T01:41:45.901Z,97998.52
2018-05-08T01:44:14.150Z,97994.54
2018-05-08T01:46:43.181Z,97994.83
2018-05-08T01:49:11.450Z,97989.90
2018-05-08T01:51:39.697Z,97984.17
2018-05-08T01:54:08.713Z,97990.60
2018-05-08T01:56:36.976Z,97988.50
2018-05-08T01:59:05.265Z,97982.58
2018-05-08T02:01:33.520Z,97986.09
2018-05-08T02:04:01.798Z,97978.81
2018-05-08T02:06:30.044Z,97983.59
2018-05-08T02:08:58.315Z,97981.20
2018-05-08T02:11:26.584Z,97978.77
2018-05-08T02:13:54.835Z,97980.55
2018-05-08T02:16:23.094Z,97975.92
2018-05-08T02:18:51.356Z,97973.74
2018-05-08T02:21:19.615Z,97980.05
2018-05-08T02:23:48.648Z,97974.15
2018-05-08T02:26:16.925Z,97973.67
2018-05-08T02:28:45.176Z,97975.92
2018-05-08T02:31:13.426Z,97972.48
2018-05-08T02:33:41.699Z,97975.15
2018-05-08T02:36:10.018Z,97972.22
2018-05-08T02:38:38.292Z,97974.45
2018-05-08T02:41:06.672Z,97978.69
2018-05-08T02:43:34.924Z,97969.32
2018-05-08T02:46:03.956Z,97977.90
2018-05-08T02:48:32.225Z,97977.62
2018-05-08T02:51:01.245Z,97971.52
2018-05-08T02:53:29.509Z,97972.89
2018-05-08T02:55:57.774Z,97973.82
2018-05-08T02:58:26.036Z,97966.11
2018-05-08T03:00:54.292Z,97965.30
2018-05-08T03:03:23.329Z,97967.08
2018-05-08T03:05:51.594Z,97965.72
2018-05-08T03:08:19.829Z,97967.95
2018-05-08T03:10:48.862Z,97961.13
2018-05-08T03:13:17.117Z,97968.31
2018-05-08T03:15:46.132Z,97961.05
2018-05-08T03:18:14.413Z,97958.52
2018-05-08T03:20:42.656Z,97959.83
2018-05-08T03:23:10.951Z,97958.13
2018-05-08T03:25:39.218Z,97955.58
2018-05-08T03:28:07.470Z,97964.20
2018-05-08T03:30:35.721Z,97958.22
2018-05-08T03:33:04.000Z,97953.50
2018-05-08T03:35:32.255Z,97955.69
2018-05-08T03:38:00.498Z,97950.20
2018-05-08T03:40:29.517Z,97957.80
2018-05-08T03:42:57.760Z,97948.45
2018-05-08T03:45:27.671Z,97945.49
2018-05-08T03:47:56.698Z,97941.56
2018-05-08T03:50:24.986Z,97948.09
2018-05-08T03:52:53.296Z,97942.05
2018-05-08T03:55:21.621Z,97942.52
2018-05-08T03:57:49.927Z,97945.06
2018-05-08T04:00:36.017Z,97931.39
2018-05-08T04:03:22.164Z,97944.19
2018-05-08T04:06:03.498Z,97942.91
2018-05-08T04:08:31.740Z,97937.32
2018-05-08T04:10:59.992Z,97934.34
2018-05-08T04:13:29.015Z,97930.99
2018-05-08T04:15:57.266Z,97931.39
2018-05-08T04:18:26.274Z,97929.66
2018-05-08T04:20:54.523Z,97928.00
2018-05-08T04:23:23.537Z,97925.45
2018-05-08T04:25:52.638Z,97925.50
2018-05-08T04:28:20.918Z,97915.73
2018-05-08T04:30:49.161Z,97928.91
2018-05-08T04:33:17.482Z,97922.52
2018-05-08T04:35:45.764Z,97917.76
2018-05-08T04:38:14.017Z,97918.63
2018-05-08T04:40:42.332Z,97918.52
2018-05-08T04:43:10.673Z,97914.17
2018-05-08T04:45:38.933Z,97907.82
2018-05-08T04:48:08.046Z,97914.55
2018-05-08T04:50:36.320Z,97909.46
2018-05-08T04:53:04.605Z,97901.70
2018-05-08T04:55:32.850Z,97905.44
2018-05-08T04:58:01.892Z,97899.34
2018-05-08T05:00:30.153Z,97899.23
2018-05-08T05:02:58.408Z,97903.06
2018-05-08T05:05:27.524Z,97899.59
2018-05-08T05:07:55.808Z,97896.87
2018-05-08T05:10:24.047Z,97901.84
2018-05-08T05:12:53.070Z,97898.30
2018-05-08T05:15:21.336Z,97902.84
2018-05-08T05:17:49.586Z,97903.95
2018-05-08T05:20:17.838Z,97894.45
2018-05-08T05:22:46.098Z,97893.94
2018-05-08T05:25:14.351Z,97880.57
2018-05-08T05:27:42.600Z,97886.72
2018-05-08T05:30:11.625Z,97890.18
2018-05-08T05:32:39.935Z,97887.09
2018-05-08T05:35:08.915Z,97887.70
2018-05-08T05:37:37.181Z,97879.23
2018-05-08T05:40:06.687Z,97871.38
2018-05-08T05:42:34.975Z,97871.58
2018-05-08T05:45:03.353Z,97868.69
2018-05-08T05:47:31.610Z,97867.03
2018-05-08T05:49:59.861Z,97866.27
2018-05-08T05:52:28.969Z,97872.37
2018-05-08T05:54:57.216Z,97870.72
2018-05-08T05:57:26.249Z,97864.44
2018-05-08T05:59:54.501Z,97868.59
2018-05-08T06:02:23.617Z,97868.83
2018-05-08T06:04:51.895Z,97865.94
2018-05-08T06:07:20.138Z,97864.88
2018-05-08T06:09:49.173Z,97862.62
2018-05-08T06:12:17.437Z,97862.05
2018-05-08T06:14:45.694Z,97857.83
2018-05-08T06:17:14.803Z,97866.19
2018-05-08T06:19:43.059Z,97860.86
2018-05-08T06:22:12.157Z,97858.44
2018-05-08T06:24:40.371Z,97863.71
2018-05-08T06:27:08.633Z,97862.42
2018-05-08T06:29:36.889Z,97862.17
2018-05-08T06:32:05.150Z,97859.09
2018-05-08T06:34:34.269Z,97855.66
2018-05-08T06:37:02.541Z,97860.03
2018-05-08T06:39:31.630Z,97852.72
2018-05-08T06:41:59.918Z,97847.67
2018-05-08T06:44:28.188Z,97841.94
2018-05-08T06:46:57.297Z,97842.97
2018-05-08T06:49:25.568Z,97837.70
2018-05-08T06:51:53.825Z,97844.31
2018-05-08T06:54:22.833Z,97839.92
2018-05-08T06:56:51.121Z,97844.13
2018-05-08T06:59:19.391Z,97838.25
2018-05-08T07:01:47.667Z,97841.23
2018-05-08T07:04:15.988Z,97843.32
2018-05-08T07:06:44.240Z,97841.61
2018-05-08T07:09:12.573Z,97842.86
2018-05-08T07:11:40.752Z,97843.45
2018-05-08T07:14:09.771Z,97834.63
2018-05-08T07:16:38.051Z,97843.06
2018-05-08T07:19:06.297Z,97843.36
2018-05-08T07:21:35.318Z,97834.64
2018-05-08T07:24:03.652Z,97837.57
2018-05-08T07:26:31.833Z,97836.61
2018-05-08T07:29:00.092Z,97822.42
2018-05-08T07:31:28.385Z,97827.33
2018-05-08T07:33:56.622Z,97829.83
2018-05-08T07:36:24.898Z,97824.56
2018-05-08T07:38:53.166Z,97822.42
2018-05-08T07:41:21.421Z,97833.50
2018-05-08T07:43:49.671Z,97830.06
2018-05-08T07:46:18.805Z,97833.76
2018-05-08T07:48:47.066Z,97832.50
2018-05-08T07:51:15.318Z,97832.55
2018-05-08T07:53:44.349Z,97833.35
2018-05-08T07:56:12.602Z,97834.94
2018-05-08T07:58:41.614Z,97827.45
2018-05-08T08:01:09.889Z,97827.64
2018-05-08T08:03:38.163Z,97827.45
2018-05-08T08:06:07.180Z,97825.96
2018-05-08T08:08:35.458Z,97834.48
2018-05-08T08:11:03.807Z,97829.98
2018-05-08T08:13:31.969Z,97824.88
2018-05-08T08:16:01.006Z,97820.13
2018-05-08T08:18:29.354Z,97823.73
2018-05-08T08:20:57.536Z,97820.66
2018-05-08T08:23:25.806Z,97819.97
2018-05-08T08:25:54.057Z,97812.34
2018-05-08T08:28:23.069Z,97812.72
2018-05-08T08:30:51.354Z,97805.25
2018-05-08T08:33:19.620Z,97803.25
2018-05-08T08:35:47.885Z,97799.02
2018-05-08T08:38:16.937Z,97799.67
2018-05-08T08:40:45.189Z,97791.73
2018-05-08T08:43:13.436Z,97788.31
2018-05-08T08:45:41.709Z,97780.71
2018-05-08T08:48:10.731Z,97779.64
2018-05-08T08:50:38.980Z,97775.36
2018-05-08T08:53:08.013Z,97775.39
2018-05-08T08:55:36.268Z,97768.33
2018-05-08T08:58:04.517Z,97762.50
2018-05-08T09:00:33.582Z,97767.91
2018-05-08T09:03:01.841Z,97755.80
2018-05-08T09:05:30.089Z,97752.45
2018-05-08T09:07:58.353Z,97752.44
2018-05-08T09:10:26.601Z,97753.11
2018-05-08T09:12:54.862Z,97750.37
2018-05-08T09:15:23.152Z,97740.17
2018-05-08T09:17:51.397Z,97745.25
2018-05-08T09:20:19.661Z,97736.52
2018-05-08T09:22:47.910Z,97729.66
2018-05-08T09:25:16.162Z,97729.98
2018-05-08T09:27:44.457Z,97726.11
2018-05-08T09:30:13.465Z,97724.58
2018-05-08T09:32:41.721Z,97724.70
2018-05-08T09:35:10.756Z,97728.58
2018-05-08T09:37:39.016Z,97719.81
2018-05-08T09:40:07.373Z,97713.52
2018-05-08T09:42:36.406Z,97702.92
2018-05-08T09:45:04.650Z,97706.28
2018-05-08T09:47:32.910Z,97709.95
2018-05-08T09:50:01.965Z,97712.95
2018-05-08T09:52:30.217Z,97701.95
2018-05-08T09:54:58.486Z,97709.38
2018-05-08T09:57:26.740Z,97702.62
2018-05-08T09:59:55.016Z,97698.51
2018-05-08T10:02:24.049Z,97693.68
2018-05-08T10:04:52.301Z,97702.89
2018-05-08T10:07:20.557Z,97697.41
2018-05-08T10:09:49.580Z,97695.02
2018-05-08T10:12:17.847Z,97689.77
2018-05-08T10:14:46.117Z,97686.56
2018-05-08T10:17:15.129Z,97690.29
2018-05-08T10:19:43.406Z,97691.39
2018-05-08T10:22:11.649Z,97688.12
2018-05-08T10:24:40.658Z,97682.32
2018-05-08T10:27:08.942Z,97675.70
2018-05-08T10:29:37.229Z,97670.13
2018-05-08T10:32:05.481Z,97669.13
2018-05-08T10:34:33.778Z,97670.31
2018-05-08T10:37:02.045Z,97667.05
2018-05-08T10:39:30.285Z,97661.94
2018-05-08T10:41:58.541Z,97655.07
2018-05-08T10:44:26.897Z,97656.23
2018-05-08T10:46:55.929Z,97652.34
2018-05-08T10:49:24.168Z,97651.66
2018-05-08T10:51:52.444Z,97646.29
2018-05-08T10:54:20.701Z,97644.13
2018-05-08T10:56:48.997Z,97637.73
2018-05-08T10:59:17.258Z,97639.11
2018-05-08T11:01:45.570Z,97632.50
2018-05-08T11:04:13.796Z,97629.69
2018-05-08T11:06:42.054Z,97624.80
2018-05-08T11:09:11.179Z,97626.03
2018-05-08T11:11:40.168Z,97616.91
2018-05-08T11:14:08.418Z,97618.09
2018-05-08T11:16:37.441Z,97617.17
2018-05-08T11:19:05.705Z,97616.29
2018-05-08T11:21:33.955Z,97618.71
2018-05-08T11:24:02.974Z,97608.97
2018-05-08T11:26:31.353Z,97610.12
2018-05-08T11:28:59.554Z,97613.52
2018-05-08T11:31:27.810Z,97610.22
2018-05-08T11:33:56.092Z,97603.75
2018-05-08T11:36:24.344Z,97603.47
2018-05-08T11:38:53.354Z,97597.31
2018-05-08T11:41:21.656Z,97588.86
2018-05-08T11:43:49.897Z,97594.88
2018-05-08T11:46:18.155Z,97595.13
2018-05-08T11:48:47.185Z,97588.40
2018-05-08T11:51:15.449Z,97583.13
2018-05-08T11:53:43.694Z,97582.07
2018-05-08T11:56:12.731Z,97579.13
2018-05-08T11:58:40.979Z,97574.06
2018-05-08T12:01:09.998Z,97564.86
2018-05-08T12:03:38.268Z,97574.48
2018-05-08T12:06:06.528Z,97570.38
2018-05-08T12:08:35.549Z,97572.22
2018-05-08T12:11:03.813Z,97560.64
2018-05-08T12:13:32.067Z,97560.95
2018-05-08T12:16:01.078Z,97556.38
2018-05-08T12:18:29.344Z,97552.99
2018-05-08T12:20:57.609Z,97546.98
2018-05-08T12:23:26.689Z,97549.50
2018-05-08T12:25:54.957Z,97546.73
2018-05-08T12:28:23.208Z,97542.56
2018-05-08T12:30:51.453Z,97537.63
2018-05-08T12:33:19.722Z,97535.70
2018-05-08T12:35:47.998Z,97535.05
2018-05-08T12:38:16.252Z,97522.78
2018-05-08T12:40:44.542Z,97524.73
2018-05-08T12:43:13.644Z,97520.50
2018-05-08T12:45:41.826Z,97524.89
2018-05-08T12:48:10.086Z,97516.63
2018-05-08T12:50:39.126Z,97518.80
2018-05-08T12:53:07.374Z,97506.69
2018-05-08T12:55:35.644Z,97502.91
2018-05-08T12:58:03.901Z,97503.52
2018-05-08T13:00:32.920Z,97495.20
2018-05-08T13:03:01.188Z,97499.53
2018-05-08T13:05:29.443Z,97495.00
2018-05-08T13:07:57.690Z,97498.73
2018-05-08T13:10:25.961Z,97501.39
2018-05-08T13:12:54.265Z,97497.27
2018-05-08T13:15:22.509Z,97504.23
2018-05-08T13:17:51.539Z,97495.20
2018-05-08T13:20:19.799Z,97491.60
2018-05-08T13:22:48.076Z,97485.48
2018-05-08T13:25:16.405Z,97482.94
2018-05-08T13:27:44.655Z,97484.57
2018-05-08T13:30:13.681Z,97481.67
2018-05-08T13:32:41.966Z,97490.40
2018-05-08T13:35:11.158Z,97486.13
2018-05-08T13:37:39.417Z,97482.48
2018-05-08T13:40:07.686Z,97474.35
2018-05-08T13:42:35.936Z,97469.80
2018-05-08T13:45:04.186Z,97476.93
2018-05-08T13:47:32.478Z,97468.68
2018-05-08T13:50:00.720Z,97467.85
2018-05-08T13:52:28.983Z,97455.77
2018-05-08T13:54:57.320Z,97456.25
2018-05-08T13:57:25.512Z,97455.94
2018-05-08T13:59:53.768Z,97455.97
2018-05-08T14:02:22.033Z,97458.02
2018-05-08T14:04:50.370Z,97456.93
2018-05-08T14:07:19.188Z,97452.84
2018-05-08T14:09:47.452Z,97452.42
2018-05-08T14:12:15.708Z,97448.96
2018-05-08T14:14:43.986Z,97446.32
2018-05-08T14:17:12.258Z,97451.12
2018-05-08T14:19:40.510Z,97448.88
2018-05-08T14:22:09.558Z,97449.52
2018-05-08T14:24:37.831Z,97447.30
2018-05-08T14:27:06.091Z,97443.88
2018-05-08T14:29:34.341Z,97439.42
2018-05-08T14:32:02.637Z,97445.80
2018-05-08T14:34:30.878Z,97430.91
2018-05-08T14:36:59.952Z,97432.92
2018-05-08T14:39:28.179Z,97428.06
2018-05-08T14:41:56.435Z,97424.85
2018-05-08T14:44:25.461Z,97421.65
2018-05-08T14:46:53.727Z,97421.73
2018-05-08T14:49:21.985Z,97421.41
2018-05-08T14:51:50.281Z,97424.20
2018-05-08T14:54:18.556Z,97425.76
2018-05-08T14:56:46.818Z,97427.58
2018-05-08T14:59:15.073Z,97422.59
2018-05-08T15:01:44.100Z,97419.18
2018-05-08T15:04:12.440Z,97424.95
2018-05-08T15:06:40.621Z,97422.06
2018-05-08T15:09:09.649Z,97417.41
2018-05-08T15:11:37.916Z,97416.58
2018-05-08T15:14:06.207Z,97410.77
2018-05-08T15:16:34.485Z,97406.18
2018-05-08T15:19:02.734Z,97410.22
2018-05-08T15:21:30.989Z,97408.12
2018-05-08T15:24:00.030Z,97396.50
2018-05-08T15:26:28.305Z,97399.25
2018-05-08T15:28:56.768Z,97401.83
2018-05-08T15:31:25.026Z,97395.96
2018-05-08T15:33:54.047Z,97396.77
2018-05-08T15:36:22.302Z,97397.59
2018-05-08T15:38:50.581Z,97392.33
2018-05-08T15:41:18.874Z,97386.06
2018-05-08T15:43:47.121Z,97382.62
2018-05-08T15:46:16.147Z,97386.02
2018-05-08T15:48:44.397Z,97377.52
2018-05-08T15:51:13.417Z,97373.52
2018-05-08T15:53:41.685Z,97371.98
2018-05-08T15:56:09.937Z,97368.05
2018-05-08T15:58:38.977Z,97366.01
2018-05-08T16:01:07.246Z,97374.85
2018-05-08T16:03:35.519Z,97362.44
2018-05-08T16:06:03.789Z,97366.03
2018-05-08T16:08:32.934Z,97365.20
2018-05-08T16:11:01.192Z,97359.94
2018-05-08T16:13:29.444Z,97365.23
2018-05-08T16:15:57.714Z,97354.16
2018-05-08T16:18:25.964Z,97354.82
2018-05-08T16:20:55.030Z,97350.80
2018-05-08T16:23:23.257Z,97358.17
2018-05-08T16:25:51.513Z,97354.60
2018-05-08T16:28:20.525Z,97354.30
2018-05-08T16:30:48.784Z,97349.13
2018-05-08T16:33:17.070Z,97345.38
2018-05-08T16:35:45.320Z,97350.02
2018-05-08T16:38:14.350Z,97351.98
2018-05-08T16:40:42.601Z,97345.67
2018-05-08T16:43:11.621Z,97349.23
2018-05-08T16:45:39.892Z,97342.63
2018-05-08T16:48:08.163Z,97345.02
2018-05-08T16:50:36.410Z,97353.01
2018-05-08T16:53:05.444Z,97353.31
2018-05-08T16:55:33.712Z,97356.75
2018-05-08T16:58:01.952Z,97351.78
2018-05-08T17:00:31.027Z,97347.87
2018-05-08T17:02:59.279Z,97350.95
2018-05-08T17:05:27.532Z,97350.28
2018-05-08T17:07:55.846Z,97353.84
2018-05-08T17:10:24.233Z,97356.87
2018-05-08T17:12:52.491Z,97351.50
2018-05-08T17:15:20.762Z,97350.88
2018-05-08T17:17:49.049Z,97351.30
2018-05-08T17:20:17.267Z,97344.23
2018-05-08T17:22:46.303Z,97349.76
2018-05-08T17:25:14.560Z,97349.23
2018-05-08T17:27:42.812Z,97353.27
2018-05-08T17:30:11.848Z,97351.61
2018-05-08T17:32:40.102Z,97352.44
2018-05-08T17:35:08.357Z,97347.15
2018-05-08T17:37:37.394Z,97347.80
2018-05-08T17:40:05.694Z,97352.52
2018-05-08T17:42:34.036Z,97349.36
2018-05-08T17:45:02.365Z,97348.12
2018-05-08T17:47:31.448Z,97348.39
2018-05-08T17:49:59.791Z,97350.63
2018-05-08T17:52:28.063Z,97350.50
2018-05-08T17:54:56.317Z,97354.59
2018-05-08T17:57:25.340Z,97351.21
2018-05-08T17:59:53.603Z,97355.41
2018-05-08T18:02:21.864Z,97358.97
2018-05-08T18:04:50.881Z,97359.55
2018-05-08T18:07:19.158Z,97356.77
2018-05-08T18:09:47.433Z,97366.65
2018-05-08T18:12:15.712Z,97366.56
2018-05-08T18:14:43.993Z,97366.77
2018-05-08T18:17:12.258Z,97354.88
2018-05-08T18:19:40.528Z,97365.05
2018-05-08T18:22:08.799Z,97361.32
2018-05-08T18:24:37.131Z,97361.28
2018-05-08T18:27:05.382Z,97356.37
2018-05-08T18:29:33.705Z,97354.56
2018-05-08T18:32:02.791Z,97358.31
2018-05-08T18:34:31.088Z,97357.97
2018-05-08T18:37:00.514Z,97354.44
2018-05-08T18:39:29.298Z,97352.25
2018-05-08T18:41:58.208Z,97355.20
2018-05-08T18:44:28.096Z,97360.81
2018-05-08T18:46:57.138Z,97361.03
2018-05-08T18:49:26.552Z,97365.44
2018-05-08T18:51:55.857Z,97367.53
2018-05-08T18:54:25.100Z,97365.72
2018-05-08T18:56:55.261Z,97373.02
2018-05-08T18:59:24.508Z,97375.22
2018-05-08T19:01:53.898Z,97372.69
2018-05-08T19:04:23.928Z,97378.12
2018-05-08T19:06:53.154Z,97379.67
2018-05-08T19:09:22.638Z,97378.42
2018-05-08T19:11:52.635Z,97385.16
2018-05-08T19:14:21.973Z,97384.03
2018-05-08T19:16:52.133Z,97393.42
2018-05-08T19:19:27.666Z,97398.52
2018-05-08T19:21:56.929Z,97397.90
2018-05-08T19:24:32.346Z,97395.56
2018-05-08T19:27:01.627Z,97402.78
2018-05-08T19:29:36.292Z,97402.72
2018-05-08T19:32:05.559Z,97396.33
2018-05-08T19:34:40.455Z,97408.72
2018-05-08T19:37:15.093Z,97405.61
2018-05-08T19:39:44.486Z,97403.58
2018-05-08T19:42:13.775Z,97403.97
2018-05-08T19:44:43.032Z,97404.99
2018-05-08T19:47:12.466Z,97404.84
2018-05-08T19:49:42.516Z,97408.39
2018-05-08T19:52:11.852Z,97407.83
2018-05-08T19:54:41.122Z,97408.17
2018-05-08T19:57:10.561Z,97402.19
2018-05-08T19:59:40.016Z,97403.53
2018-05-08T20:02:09.399Z,97406.92
2018-05-08T20:04:39.531Z,97404.95
2018-05-08T20:07:08.921Z,97402.67
2018-05-08T20:09:39.877Z,97406.50
2018-05-08T20:12:09.279Z,97402.78
2018-05-08T20:14:39.606Z,97402.66
2018-05-08T20:17:09.009Z,97404.06
2018-05-08T20:19:38.257Z,97402.16
2018-05-08T20:22:07.598Z,97408.64
2018-05-08T20:24:36.896Z,97409.13
2018-05-08T20:27:06.167Z,97406.72
2018-05-08T20:29:35.521Z,97413.34
2018-05-08T20:32:04.771Z,97413.81
2018-05-08T20:34:35.068Z,97411.42
2018-05-08T20:37:04.885Z,97415.17
2018-05-08T20:39:34.144Z,97411.53
2018-05-08T20:42:04.195Z,97410.08
2018-05-08T20:44:33.546Z,97414.39
2018-05-08T20:47:03.665Z,97412.16
2018-05-08T20:49:33.730Z,97411.74
2018-05-08T20:52:03.121Z,97409.56
2018-05-08T20:54:32.470Z,97407.52
2018-05-08T20:57:01.639Z,97414.38
2018-05-08T20:59:30.970Z,97414.27
2018-05-08T21:02:00.897Z,97414.23
2018-05-08T21:04:31.002Z,97415.88
2018-05-08T21:07:00.194Z,97409.43
2018-05-08T21:09:29.347Z,97405.68
2018-05-08T21:11:58.308Z,97405.91
2018-05-08T21:14:27.232Z,97410.72
2018-05-08T21:16:56.011Z,97409.73
2018-05-08T21:19:24.336Z,97410.28
2018-05-08T21:21:53.379Z,97413.52
2018-05-08T21:24:21.636Z,97411.56
2018-05-08T21:26:49.893Z,97416.32
2018-05-08T21:29:23.781Z,97417.57
2018-05-08T21:31:52.812Z,97415.00
2018-05-08T21:34:21.065Z,97419.06
2018-05-08T21:36:50.078Z,97415.36
2018-05-08T21:39:18.433Z,97409.00
2018-05-08T21:41:47.453Z,97410.22
2018-05-08T21:44:15.706Z,97408.50
2018-05-08T21:46:43.970Z,97405.48
2018-05-08T21:49:12.982Z,97406.91
2018-05-08T21:51:41.238Z,97401.47
2018-05-08T21:54:10.265Z,97401.89
2018-05-08T21:56:38.513Z,97404.50
2018-05-08T21:59:07.537Z,97403.13
2018-05-08T22:01:35.797Z,97401.09
2018-05-08T22:04:04.052Z,97404.05
2018-05-08T22:06:33.067Z,97410.13
2018-05-08T22:09:01.347Z,97403.88
2018-05-08T22:11:29.626Z,97407.77
2018-05-08T22:13:57.905Z,97405.47
2018-05-08T22:16:26.173Z,97400.42
2018-05-08T22:18:54.429Z,97404.21
2018-05-08T22:21:23.450Z,97407.07
2018-05-08T22:23:51.729Z,97401.30
2018-05-08T22:26:20.070Z,97408.87
2018-05-08T22:28:48.373Z,97408.13
2018-05-08T22:31:16.661Z,97409.86
2018-05-08T22:33:44.907Z,97400.09
2018-05-08T22:36:13.934Z,97405.38
2018-05-08T22:38:42.213Z,97409.01
2018-05-08T22:41:10.478Z,97405.77
2018-05-08T22:43:38.721Z,97400.95
2018-05-08T22:46:07.749Z,97403.82
2018-05-08T22:48:36.003Z,97400.58
2018-05-08T22:51:05.021Z,97393.77
2018-05-08T22:53:33.293Z,97399.92
2018-05-08T22:56:01.556Z,97395.20
2018-05-08T22:58:29.805Z,97392.00
2018-05-08T23:00:58.118Z,97400.70
2018-05-08T23:03:26.471Z,97396.47
2018-05-08T23:05:54.789Z,97401.37
2018-05-08T23:08:23.154Z,97397.16
2018-05-08T23:10:51.484Z,97395.33
2018-05-08T23:13:19.812Z,97397.20
2018-05-08T23:15:48.133Z,97401.37
2018-05-08T23:18:16.434Z,97393.99
2018-05-08T23:20:45.534Z,97397.63
2018-05-08T23:23:14.627Z,97398.38
2018-05-08T23:25:42.948Z,97398.12
2018-05-08T23:28:11.283Z,97396.33
2018-05-08T23:30:40.326Z,97393.97
2018-05-08T23:33:08.582Z,97395.34
2018-05-08T23:35:36.825Z,97397.82
2018-05-08T23:38:05.865Z,97392.09
2018-05-08T23:40:34.124Z,97391.41
2018-05-08T23:43:02.368Z,97395.56
2018-05-08T23:45:31.414Z,97391.09
2018-05-08T23:47:59.680Z,97383.19
2018-05-08T23:50:27.965Z,97384.56
2018-05-08T23:52:56.240Z,97384.49
2018-05-08T23:55:24.553Z,97384.23
2018-05-08T23:57:52.810Z,97389.11
